Time;durP1;ratioP1;P1;durP2;ratioP2;P2;SDS_P1;SDS_P2;PMS_P1;PMS_P2;Temp;Humidity;BMP_temperature;BMP_pressure;BME280_temperature;BME280_humidity;BME280_pressure;Samples;Min_cycle;Max_cycle;Signal;HPM_P1;HPM_P2
2021/06/04 00:00:42;;;;;;;;;;;23.90;42.40;;;;;;1497718;78;778;-70
2021/06/04 00:02:44;;;;;;;;;;;23.90;42.30;;;;;;1495662;78;720;-73
2021/06/04 00:04:45;;;;;;;;;;;23.90;42.30;;;;;;1493746;78;810;-71
2021/06/04 00:06:47;;;;;;;;;;;23.90;42.30;;;;;;1491179;78;812;-70
2021/06/04 00:08:49;;;;;;;;;;;23.90;42.10;;;;;;1501288;78;1147;-70
2021/06/04 00:10:53;;;;;;;;;;;23.90;42.00;;;;;;1493196;78;1914;-71
2021/06/04 00:12:55;;;;;;;;;;;24.00;42.00;;;;;;1494252;78;1935;-69
2021/06/04 00:14:57;;;;;;;;;;;23.90;41.90;;;;;;1497258;78;896;-71
2021/06/04 00:17:00;;;;;;;;;;;24.00;42.00;;;;;;1496956;78;739;-72
2021/06/04 00:19:02;;;;;;;;;;;23.90;42.10;;;;;;1496124;78;1171;-70
2021/06/04 00:21:05;;;;;;;;;;;24.00;42.00;;;;;;1496224;78;777;-70
2021/06/04 00:23:07;;;;;;;;;;;24.00;42.00;;;;;;1496512;78;1081;-74
2021/06/04 00:25:09;;;;;;;;;;;24.00;41.90;;;;;;1498391;78;739;-70
2021/06/04 00:27:11;;;;;;;;;;;24.00;41.90;;;;;;1498207;78;803;-71
2021/06/04 00:29:13;;;;;;;;;;;24.00;41.80;;;;;;1495133;78;1170;-72
2021/06/04 00:31:15;;;;;;;;;;;24.00;41.70;;;;;;1497162;78;1904;-74
2021/06/04 00:33:17;;;;;;;;;;;24.00;41.80;;;;;;1493995;78;730;-71
2021/06/04 00:35:19;;;;;;;;;;;24.00;41.70;;;;;;1495001;78;748;-71
2021/06/04 00:37:21;;;;;;;;;;;23.90;41.60;;;;;;1496061;78;744;-70
2021/06/04 00:39:24;;;;;;;;;;;24.00;41.60;;;;;;1491094;78;1214;-70
2021/06/04 00:41:39;;;;;;;;;;;23.90;41.60;;;;;;1496890;78;774;-69
2021/06/04 00:43:41;;;;;;;;;;;24.00;41.80;;;;;;1498980;78;749;-71
2021/06/04 00:45:44;;;;;;;;;;;23.90;41.80;;;;;;1496057;78;787;-71
2021/06/04 00:47:46;;;;;;;;;;;23.90;42.00;;;;;;1493010;78;723;-71
2021/06/04 00:49:49;;;;;;;;;;;23.90;41.70;;;;;;1497238;78;1146;-70
2021/06/04 00:51:52;;;;;;;;;;;23.90;41.90;;;;;;1494847;78;1910;-71
2021/06/04 00:53:54;;;;;;;;;;;23.90;41.80;;;;;;1500029;78;764;-70
2021/06/04 00:55:56;;;;;;;;;;;23.90;41.80;;;;;;1497602;78;823;-70
2021/06/04 00:57:58;;;;;;;;;;;23.90;41.70;;;;;;1492431;78;786;-68
2021/06/04 01:00:03;;;;;;;;;;;23.80;41.70;;;;;;1497720;78;1126;-77
2021/06/04 01:02:07;;;;;;;;;;;23.90;41.50;;;;;;1496699;78;805;-73
2021/06/04 01:04:10;;;;;;;;;;;23.90;41.50;;;;;;1496137;78;754;-70
2021/06/04 01:06:13;;;;;;;;;;;23.90;41.50;;;;;;1498898;78;758;-72
2021/06/04 01:08:32;;;;;;;;;;;23.90;41.40;;;;;;1496956;78;1916;-71
2021/06/04 01:10:36;;;;;;;;;;;23.90;41.40;;;;;;1497529;78;911;-73
2021/06/04 01:12:45;;;;;;;;;;;23.90;41.30;;;;;;1500810;78;1966;-72
2021/06/04 01:15:05;;;;;;;;;;;23.90;41.10;;;;;;1491310;78;786;-70
2021/06/04 01:17:25;;;;;;;;;;;23.90;41.40;;;;;;1488896;78;778;-71
2021/06/04 01:19:29;;;;;;;;;;;23.90;41.40;;;;;;1481945;78;1147;-70
2021/06/04 01:21:36;;;;;;;;;;;23.90;41.40;;;;;;1497064;78;1889;-70
2021/06/04 01:23:39;;;;;;;;;;;23.80;41.20;;;;;;1496941;78;809;-71
2021/06/04 01:25:58;;;;;;;;;;;23.90;41.40;;;;;;1494051;79;1888;-71
2021/06/04 01:28:00;;;;;;;;;;;23.90;41.00;;;;;;1487456;78;728;-70
2021/06/04 01:30:20;;;;;;;;;;;23.90;40.80;;;;;;1484547;78;1153;-71
2021/06/04 01:32:24;;;;;;;;;;;23.80;40.80;;;;;;1493756;78;1905;-70
2021/06/04 01:34:30;;;;;;;;;;;23.90;41.00;;;;;;1483541;78;728;-70
2021/06/04 01:36:39;;;;;;;;;;;23.90;41.00;;;;;;1491144;78;845;-70
2021/06/04 01:38:41;;;;;;;;;;;23.80;40.90;;;;;;1481882;78;1154;-71
2021/06/04 01:40:45;;;;;;;;;;;23.80;40.80;;;;;;1480445;78;729;-70
2021/06/04 01:42:47;;;;;;;;;;;23.80;40.60;;;;;;1486867;78;719;-72
2021/06/04 01:44:53;;;;;;;;;;;23.90;41.00;;;;;;1489433;78;928;-71
2021/06/04 01:46:59;;;;;;;;;;;23.90;40.70;;;;;;1493839;78;728;-70
2021/06/04 01:49:02;;;;;;;;;;;23.90;40.80;;;;;;1491451;78;1610;-71
2021/06/04 01:51:06;;;;;;;;;;;23.80;40.60;;;;;;1492112;78;1930;-70
2021/06/04 01:53:09;;;;;;;;;;;23.90;40.70;;;;;;1497857;78;1253;-70
2021/06/04 01:55:13;;;;;;;;;;;23.80;40.70;;;;;;1495336;78;760;-70
2021/06/04 01:57:19;;;;;;;;;;;23.90;40.50;;;;;;1500539;78;704;-73
2021/06/04 01:59:34;;;;;;;;;;;23.90;40.20;;;;;;1488067;78;1357;-70
2021/06/04 02:01:38;;;;;;;;;;;23.90;40.40;;;;;;1491509;78;1017;-69
2021/06/04 02:03:39;;;;;;;;;;;23.90;40.20;;;;;;1482744;78;1063;-70
2021/06/04 02:05:42;;;;;;;;;;;23.80;40.20;;;;;;1488000;78;803;-72
2021/06/04 02:07:43;;;;;;;;;;;23.90;40.00;;;;;;1481068;78;818;-71
2021/06/04 02:09:45;;;;;;;;;;;23.80;40.00;;;;;;1500717;77;1158;-70
2021/06/04 02:11:47;;;;;;;;;;;23.80;39.80;;;;;;1484591;78;1934;-66
2021/06/04 02:13:49;;;;;;;;;;;23.90;40.50;;;;;;1479713;78;755;-70
2021/06/04 02:15:53;;;;;;;;;;;23.80;40.50;;;;;;1488392;78;793;-70
2021/06/04 02:17:56;;;;;;;;;;;23.80;40.60;;;;;;1492295;78;773;-73
2021/06/04 02:20:09;;;;;;;;;;;23.90;40.60;;;;;;1494146;78;1076;-71
2021/06/04 02:22:15;;;;;;;;;;;23.80;40.40;;;;;;1488192;78;712;-71
2021/06/04 02:24:28;;;;;;;;;;;23.90;40.60;;;;;;1492422;78;1941;-69
2021/06/04 02:26:31;;;;;;;;;;;23.90;40.60;;;;;;1493292;78;1983;-69
2021/06/04 02:28:44;;;;;;;;;;;23.90;40.50;;;;;;1498403;77;1217;-69
2021/06/04 02:30:50;;;;;;;;;;;23.80;40.20;;;;;;1494637;78;793;-69
2021/06/04 02:32:53;;;;;;;;;;;23.80;40.30;;;;;;1487327;78;1938;-69
2021/06/04 02:34:57;;;;;;;;;;;23.80;40.20;;;;;;1484507;78;734;-70
2021/06/04 02:36:59;;;;;;;;;;;23.80;40.40;;;;;;1486932;78;1704;-70
2021/06/04 02:39:06;;;;;;;;;;;23.80;40.10;;;;;;1488503;78;1190;-71
2021/06/04 02:41:12;;;;;;;;;;;23.80;40.30;;;;;;1492531;78;1180;-72
2021/06/04 02:43:16;;;;;;;;;;;23.80;40.10;;;;;;1501146;78;1004;-72
2021/06/04 02:45:28;;;;;;;;;;;23.80;39.90;;;;;;1498840;78;745;-70
2021/06/04 02:47:34;;;;;;;;;;;23.90;39.90;;;;;;1492164;78;844;-69
2021/06/04 02:49:36;;;;;;;;;;;23.90;40.00;;;;;;1493805;78;1859;-72
2021/06/04 02:51:41;;;;;;;;;;;23.80;40.20;;;;;;1505230;78;1933;-73
2021/06/04 02:53:47;;;;;;;;;;;23.80;40.30;;;;;;1498559;78;785;-69
2021/06/04 02:56:07;;;;;;;;;;;23.80;39.70;;;;;;1487333;78;1997;-69
2021/06/04 02:58:09;;;;;;;;;;;23.80;40.00;;;;;;1492104;78;752;-70
2021/06/04 03:00:13;;;;;;;;;;;23.80;40.20;;;;;;1548842;73;218658;-74
2021/06/04 03:02:19;;;;;;;;;;;23.80;40.10;;;;;;1566104;75;1049;-76
2021/06/04 03:04:21;;;;;;;;;;;23.80;40.30;;;;;;1561761;75;1790;-74
2021/06/04 03:06:23;;;;;;;;;;;23.80;40.30;;;;;;1569666;75;747;-72
2021/06/04 03:08:27;;;;;;;;;;;23.80;40.50;;;;;;1577613;75;860;-73
2021/06/04 03:10:30;;;;;;;;;;;23.70;40.60;;;;;;1563115;74;1155;-71
2021/06/04 03:12:34;;;;;;;;;;;23.80;40.50;;;;;;1555507;74;1942;-70
2021/06/04 03:14:36;;;;;;;;;;;23.80;40.50;;;;;;1556991;74;791;-74
2021/06/04 03:16:37;;;;;;;;;;;23.70;40.60;;;;;;1561291;74;735;-71
2021/06/04 03:18:41;;;;;;;;;;;23.80;40.50;;;;;;1553863;74;1116;-71
2021/06/04 03:20:44;;;;;;;;;;;23.80;40.70;;;;;;1568763;74;719;-71
2021/06/04 03:22:46;;;;;;;;;;;23.80;40.60;;;;;;1564370;74;794;-71
2021/06/04 03:24:48;;;;;;;;;;;23.80;40.60;;;;;;1563333;74;790;-70
2021/06/04 03:26:50;;;;;;;;;;;23.80;40.60;;;;;;1565020;74;790;-74
2021/06/04 03:28:52;;;;;;;;;;;23.80;40.60;;;;;;1560392;74;1122;-68
2021/06/04 03:30:54;;;;;;;;;;;23.80;40.50;;;;;;1566585;74;701;-70
2021/06/04 03:32:56;;;;;;;;;;;23.90;40.60;;;;;;1563745;74;1936;-71
2021/06/04 03:34:58;;;;;;;;;;;23.90;40.60;;;;;;1560589;74;728;-72
2021/06/04 03:37:00;;;;;;;;;;;23.80;40.50;;;;;;1563615;74;737;-74
2021/06/04 03:39:02;;;;;;;;;;;23.90;40.50;;;;;;1565437;74;1158;-72
2021/06/04 03:41:04;;;;;;;;;;;23.90;40.40;;;;;;1564453;74;722;-72
2021/06/04 03:43:06;;;;;;;;;;;23.80;40.50;;;;;;1565457;74;810;-73
2021/06/04 03:45:09;;;;;;;;;;;23.90;40.50;;;;;;1558777;74;736;-72
2021/06/04 03:47:11;;;;;;;;;;;23.80;40.40;;;;;;1565775;74;746;-74
2021/06/04 03:49:13;;;;;;;;;;;23.90;40.60;;;;;;1571477;74;1135;-72
2021/06/04 03:51:16;;;;;;;;;;;23.90;40.70;;;;;;1577050;74;767;-73
2021/06/04 03:53:18;;;;;;;;;;;23.90;40.60;;;;;;1561269;74;1947;-72
2021/06/04 03:55:22;;;;;;;;;;;23.90;40.60;;;;;;1571706;74;780;-73
2021/06/04 03:57:25;;;;;;;;;;;23.90;40.60;;;;;;1575652;74;718;-71
2021/06/04 03:59:27;;;;;;;;;;;23.90;40.70;;;;;;1571615;74;1146;-71
2021/06/04 04:01:30;;;;;;;;;;;23.90;40.70;;;;;;1590320;74;696;-71
2021/06/04 04:03:32;;;;;;;;;;;23.90;40.70;;;;;;1583736;74;752;-71
2021/06/04 04:05:34;;;;;;;;;;;23.90;40.50;;;;;;1577114;74;768;-70
2021/06/04 04:07:38;;;;;;;;;;;23.90;40.70;;;;;;1592349;74;800;-72
2021/06/04 04:09:40;;;;;;;;;;;23.90;40.70;;;;;;1576360;74;1144;-73
2021/06/04 04:11:42;;;;;;;;;;;23.90;40.70;;;;;;1586388;74;1938;-73
2021/06/04 04:13:44;;;;;;;;;;;23.90;40.80;;;;;;1573099;74;819;-74
2021/06/04 04:15:45;;;;;;;;;;;23.90;40.70;;;;;;1571739;74;787;-76
2021/06/04 04:17:49;;;;;;;;;;;23.90;40.70;;;;;;1591082;74;730;-76
2021/06/04 04:19:51;;;;;;;;;;;23.90;40.70;;;;;;1594389;74;1128;-75
2021/06/04 04:21:54;;;;;;;;;;;23.90;40.70;;;;;;1589796;74;810;-75
2021/06/04 04:23:56;;;;;;;;;;;23.90;40.70;;;;;;1571137;74;715;-73
2021/06/04 04:25:58;;;;;;;;;;;23.90;40.70;;;;;;1574397;74;756;-75
2021/06/04 04:28:01;;;;;;;;;;;23.90;40.50;;;;;;1575839;74;783;-76
2021/06/04 04:30:03;;;;;;;;;;;23.90;40.50;;;;;;1583992;74;1109;-75
2021/06/04 04:32:06;;;;;;;;;;;23.90;40.60;;;;;;1580844;74;1937;-74
2021/06/04 04:34:08;;;;;;;;;;;23.90;40.60;;;;;;1580622;74;705;-73
2021/06/04 04:36:10;;;;;;;;;;;23.90;40.70;;;;;;1584168;74;811;-74
2021/06/04 04:38:20;;;;;;;;;;;23.80;40.90;;;;;;1591048;74;726;-76
2021/06/04 04:40:16;;;;;;;;;;;23.90;40.50;;;;;;1591251;74;1664;-72
2021/06/04 04:42:19;;;;;;;;;;;23.90;40.60;;;;;;1588047;74;790;-72
2021/06/04 04:44:22;;;;;;;;;;;23.90;40.50;;;;;;1591246;74;751;-72
2021/06/04 04:46:25;;;;;;;;;;;23.90;40.60;;;;;;1578682;74;752;-75
2021/06/04 04:48:26;;;;;;;;;;;23.80;40.90;;;;;;1589908;74;767;-75
2021/06/04 04:50:30;;;;;;;;;;;23.90;40.70;;;;;;1593046;74;1074;-73
2021/06/04 04:52:32;;;;;;;;;;;23.80;40.80;;;;;;1596385;74;1928;-74
2021/06/04 04:54:34;;;;;;;;;;;23.90;40.70;;;;;;1593223;74;765;-75
2021/06/04 04:56:36;;;;;;;;;;;23.80;40.80;;;;;;1565837;74;739;-70
2021/06/04 04:58:38;;;;;;;;;;;23.80;40.50;;;;;;1587560;74;1188;-72
2021/06/04 05:00:40;;;;;;;;;;;23.80;40.70;;;;;;1577116;74;748;-72
2021/06/04 05:02:42;;;;;;;;;;;23.90;40.50;;;;;;1558744;74;747;-72
2021/06/04 05:04:44;;;;;;;;;;;23.80;40.10;;;;;;1559209;74;742;-73
2021/06/04 05:06:45;;;;;;;;;;;23.80;40.30;;;;;;1552501;74;769;-75
2021/06/04 05:08:47;;;;;;;;;;;23.90;40.30;;;;;;1562729;74;1138;-74
2021/06/04 05:10:49;;;;;;;;;;;23.80;40.10;;;;;;1562399;74;776;-75
2021/06/04 05:12:51;;;;;;;;;;;23.90;40.10;;;;;;1568538;74;1932;-75
2021/06/04 05:14:53;;;;;;;;;;;23.90;40.20;;;;;;1559141;74;784;-77
2021/06/04 05:16:55;;;;;;;;;;;23.80;40.20;;;;;;1561359;74;770;-76
2021/06/04 05:18:57;;;;;;;;;;;23.90;40.10;;;;;;1571604;74;1131;-74
2021/06/04 05:20:58;;;;;;;;;;;23.80;40.20;;;;;;1566302;74;705;-73
2021/06/04 05:23:01;;;;;;;;;;;23.80;40.10;;;;;;1572466;74;760;-75
2021/06/04 05:25:04;;;;;;;;;;;23.80;40.30;;;;;;1573360;74;796;-73
2021/06/04 05:27:06;;;;;;;;;;;23.80;40.40;;;;;;1562141;74;793;-70
2021/06/04 05:29:08;;;;;;;;;;;23.80;40.60;;;;;;1570240;74;1136;-73
2021/06/04 05:31:10;;;;;;;;;;;23.90;40.90;;;;;;1569684;74;809;-74
2021/06/04 05:33:13;;;;;;;;;;;23.80;40.80;;;;;;1562625;74;1947;-74
2021/06/04 05:35:15;;;;;;;;;;;23.90;40.90;;;;;;1561998;74;816;-75
2021/06/04 05:37:17;;;;;;;;;;;23.90;40.80;;;;;;1566720;74;787;-70
2021/06/04 05:39:20;;;;;;;;;;;23.90;40.80;;;;;;1572746;74;1156;-72
2021/06/04 05:41:22;;;;;;;;;;;23.90;40.70;;;;;;1560761;74;759;-72
2021/06/04 05:43:25;;;;;;;;;;;23.80;41.20;;;;;;1556711;74;742;-73
2021/06/04 05:45:28;;;;;;;;;;;23.80;41.30;;;;;;1552123;74;791;-72
2021/06/04 05:47:30;;;;;;;;;;;23.80;41.30;;;;;;1554668;74;749;-73
2021/06/04 05:49:32;;;;;;;;;;;23.80;41.20;;;;;;1564412;74;1090;-76
2021/06/04 05:51:34;;;;;;;;;;;23.80;41.20;;;;;;1574800;74;715;-75
2021/06/04 05:53:36;;;;;;;;;;;23.80;41.50;;;;;;1573999;74;1929;-74
2021/06/04 05:55:38;;;;;;;;;;;23.80;41.60;;;;;;1572273;74;787;-74
2021/06/04 05:57:41;;;;;;;;;;;23.80;41.70;;;;;;1559028;74;806;-75
2021/06/04 05:59:43;;;;;;;;;;;23.80;41.60;;;;;;1562853;74;1154;-74
2021/06/04 06:01:46;;;;;;;;;;;23.90;41.90;;;;;;1559513;74;718;-72
2021/06/04 06:03:48;;;;;;;;;;;23.80;41.80;;;;;;1559484;74;697;-73
2021/06/04 06:05:50;;;;;;;;;;;23.80;41.90;;;;;;1555856;74;802;-73
2021/06/04 06:07:52;;;;;;;;;;;23.90;42.30;;;;;;1560472;74;856;-69
2021/06/04 06:09:54;;;;;;;;;;;23.80;42.20;;;;;;1554798;74;1140;-71
2021/06/04 06:11:56;;;;;;;;;;;23.80;42.40;;;;;;1558460;74;769;-71
2021/06/04 06:13:58;;;;;;;;;;;23.80;42.50;;;;;;1555910;74;1928;-71
2021/06/04 06:16:00;;;;;;;;;;;23.80;42.50;;;;;;1555844;74;706;-70
2021/06/04 06:18:02;;;;;;;;;;;23.80;42.50;;;;;;1560202;73;741;-70
2021/06/04 06:20:06;;;;;;;;;;;23.80;42.50;;;;;;1550593;75;1202;-71
2021/06/04 06:22:08;;;;;;;;;;;23.80;42.50;;;;;;1562929;74;733;-71
2021/06/04 06:24:10;;;;;;;;;;;23.80;42.60;;;;;;1554093;74;788;-70
2021/06/04 06:26:18;;;;;;;;;;;23.80;42.60;;;;;;1566098;74;736;-71
2021/06/04 06:28:20;;;;;;;;;;;23.80;42.70;;;;;;1552931;74;1808;-75
2021/06/04 06:30:22;;;;;;;;;;;23.80;42.80;;;;;;1561128;74;1123;-75
2021/06/04 06:32:24;;;;;;;;;;;23.80;42.70;;;;;;1560917;74;749;-72
2021/06/04 06:34:26;;;;;;;;;;;23.80;42.80;;;;;;1553009;74;1943;-73
2021/06/04 06:36:30;;;;;;;;;;;23.80;42.80;;;;;;1556973;74;735;-75
2021/06/04 06:38:32;;;;;;;;;;;23.80;42.90;;;;;;1556122;74;721;-75
2021/06/04 06:40:34;;;;;;;;;;;23.80;42.80;;;;;;1557423;74;1226;-75
2021/06/04 06:42:36;;;;;;;;;;;23.80;42.80;;;;;;1548970;74;753;-76
2021/06/04 06:44:38;;;;;;;;;;;23.80;42.90;;;;;;1556507;74;728;-71
2021/06/04 06:46:40;;;;;;;;;;;23.80;43.00;;;;;;1564490;74;793;-72
2021/06/04 06:48:42;;;;;;;;;;;23.80;43.30;;;;;;1561986;74;1142;-74
2021/06/04 06:50:44;;;;;;;;;;;23.80;43.30;;;;;;1576779;74;783;-74
2021/06/04 06:52:46;;;;;;;;;;;23.80;43.30;;;;;;1571267;74;1950;-74
2021/06/04 06:54:48;;;;;;;;;;;23.80;43.10;;;;;;1567992;74;713;-74
2021/06/04 06:56:51;;;;;;;;;;;23.90;43.40;;;;;;1574965;74;761;-74
2021/06/04 06:58:53;;;;;;;;;;;23.90;43.30;;;;;;1556668;74;1087;-72
2021/06/04 07:00:55;;;;;;;;;;;23.80;43.40;;;;;;1573456;74;751;-72
2021/06/04 07:02:57;;;;;;;;;;;23.80;43.50;;;;;;1577259;74;767;-72
2021/06/04 07:04:59;;;;;;;;;;;23.90;43.60;;;;;;1568585;74;771;-73
2021/06/04 07:07:01;;;;;;;;;;;23.80;43.30;;;;;;1571710;74;802;-75
2021/06/04 07:09:04;;;;;;;;;;;23.80;43.40;;;;;;1575759;74;1169;-73
2021/06/04 07:11:06;;;;;;;;;;;23.90;43.60;;;;;;1573756;74;698;-74
2021/06/04 07:13:09;;;;;;;;;;;23.90;43.70;;;;;;1569131;74;1922;-72
2021/06/04 07:15:12;;;;;;;;;;;23.90;43.60;;;;;;1572000;74;801;-72
2021/06/04 07:17:14;;;;;;;;;;;23.90;43.60;;;;;;1563402;74;737;-73
2021/06/04 07:19:15;;;;;;;;;;;23.90;43.60;;;;;;1564196;74;1145;-72
2021/06/04 07:21:19;;;;;;;;;;;23.90;43.50;;;;;;1559364;74;777;-73
2021/06/04 07:23:21;;;;;;;;;;;23.90;43.80;;;;;;1554107;74;728;-74
2021/06/04 07:25:24;;;;;;;;;;;23.90;43.80;;;;;;1556976;74;735;-76
2021/06/04 07:27:26;;;;;;;;;;;24.00;43.90;;;;;;1558030;74;747;-74
2021/06/04 07:29:28;;;;;;;;;;;23.90;43.80;;;;;;1563831;74;1153;-72
2021/06/04 07:31:30;;;;;;;;;;;24.00;44.10;;;;;;1560098;74;734;-73
2021/06/04 07:33:34;;;;;;;;;;;24.10;43.90;;;;;;1545776;74;1925;-72
2021/06/04 07:35:36;;;;;;;;;;;24.10;43.90;;;;;;1562360;73;704;-75
2021/06/04 07:37:38;;;;;;;;;;;24.20;43.70;;;;;;1560203;74;804;-73
2021/06/04 07:39:40;;;;;;;;;;;24.30;43.80;;;;;;1559568;74;1164;-74
2021/06/04 07:41:42;;;;;;;;;;;24.30;43.50;;;;;;1551774;74;800;-70
2021/06/04 07:43:44;;;;;;;;;;;24.30;43.40;;;;;;1568440;74;739;-71
2021/06/04 07:45:46;;;;;;;;;;;24.40;43.20;;;;;;1569758;74;730;-73
2021/06/04 07:47:48;;;;;;;;;;;24.40;43.00;;;;;;1558105;74;775;-72
2021/06/04 07:49:50;;;;;;;;;;;24.40;42.70;;;;;;1563864;74;1141;-71
2021/06/04 07:51:55;;;;;;;;;;;24.40;42.50;;;;;;1561544;74;597;-73
2021/06/04 07:53:56;;;;;;;;;;;24.40;42.40;;;;;;1565591;74;1930;-77
2021/06/04 07:55:58;;;;;;;;;;;24.40;42.40;;;;;;1562392;74;792;-73
2021/06/04 07:58:00;;;;;;;;;;;24.40;42.20;;;;;;1559322;74;729;-73
2021/06/04 08:00:04;;;;;;;;;;;24.40;42.10;;;;;;1550199;74;1127;-73
2021/06/04 08:02:06;;;;;;;;;;;24.40;42.00;;;;;;1546744;74;1013;-69
2021/06/04 08:04:08;;;;;;;;;;;24.40;42.00;;;;;;1561274;74;705;-73
2021/06/04 08:06:09;;;;;;;;;;;24.40;41.80;;;;;;1562340;74;771;-73
2021/06/04 08:08:11;;;;;;;;;;;24.30;41.90;;;;;;1557319;74;712;-75
2021/06/04 08:10:14;;;;;;;;;;;24.20;42.00;;;;;;1557036;74;1126;-74
2021/06/04 08:12:16;;;;;;;;;;;24.30;42.30;;;;;;1555171;74;799;-71
2021/06/04 08:14:19;;;;;;;;;;;24.20;42.20;;;;;;1569312;74;1912;-72
2021/06/04 08:16:20;;;;;;;;;;;24.10;42.50;;;;;;1564955;74;776;-72
2021/06/04 08:18:23;;;;;;;;;;;24.10;42.50;;;;;;1556677;74;743;-72
2021/06/04 08:20:26;;;;;;;;;;;24.10;42.50;;;;;;1561065;74;1139;-72
2021/06/04 08:22:28;;;;;;;;;;;24.00;42.30;;;;;;1560781;74;757;-72
2021/06/04 08:24:31;;;;;;;;;;;24.00;42.30;;;;;;1567778;74;747;-72
2021/06/04 08:26:33;;;;;;;;;;;24.00;42.30;;;;;;1559436;74;795;-72
2021/06/04 08:28:36;;;;;;;;;;;24.00;42.40;;;;;;1552430;74;788;-72
2021/06/04 08:30:38;;;;;;;;;;;24.00;42.40;;;;;;1559910;74;878;-69
2021/06/04 08:32:40;;;;;;;;;;;24.00;42.50;;;;;;1556688;74;776;-68
2021/06/04 08:34:42;;;;;;;;;;;23.90;42.90;;;;;;1560565;74;1911;-68
2021/06/04 08:36:44;;;;;;;;;;;23.90;43.10;;;;;;1561423;74;797;-69
2021/06/04 08:38:46;;;;;;;;;;;23.90;43.20;;;;;;1555216;74;1129;-69
2021/06/04 08:40:48;;;;;;;;;;;23.90;43.80;;;;;;1560890;74;851;-69
2021/06/04 08:43:01;;;;;;;;;;;24.00;44.00;;;;;;1557672;74;804;-70
2021/06/04 08:45:10;;;;;;;;;;;24.00;44.20;;;;;;1564912;74;724;-69
2021/06/04 08:47:17;;;;;;;;;;;23.90;44.40;;;;;;1564217;74;775;-69
2021/06/04 08:49:29;;;;;;;;;;;23.90;44.60;;;;;;1567633;74;1152;-69
2021/06/04 08:51:35;;;;;;;;;;;23.90;44.70;;;;;;1576166;74;758;-68
2021/06/04 08:53:38;;;;;;;;;;;23.90;44.70;;;;;;1564614;74;1932;-68
2021/06/04 08:55:47;;;;;;;;;;;23.90;44.90;;;;;;1573389;74;1995;-66
2021/06/04 08:57:53;;;;;;;;;;;23.90;44.90;;;;;;1562569;74;834;-72
2021/06/04 08:59:55;;;;;;;;;;;23.90;45.70;;;;;;1557499;74;2120;-69
2021/06/04 09:01:58;;;;;;;;;;;23.90;46.00;;;;;;1558264;75;807;-65
2021/06/04 09:04:02;;;;;;;;;;;23.80;46.30;;;;;;1558371;75;800;-70
2021/06/04 09:06:05;;;;;;;;;;;23.90;46.40;;;;;;1559620;75;1114;-70
2021/06/04 09:08:09;;;;;;;;;;;23.90;45.90;;;;;;1552160;74;733;-72
2021/06/04 09:10:29;;;;;;;;;;;23.90;45.60;;;;;;1564540;74;1194;-72
2021/06/04 09:12:49;;;;;;;;;;;23.90;45.50;;;;;;1553650;74;782;-70
2021/06/04 09:14:51;;;;;;;;;;;23.90;45.50;;;;;;1551363;75;1951;-70
2021/06/04 09:17:10;;;;;;;;;;;23.90;45.50;;;;;;1560633;75;901;-68
2021/06/04 09:19:16;;;;;;;;;;;23.90;45.40;;;;;;1552564;75;1140;-69
2021/06/04 09:21:19;;;;;;;;;;;23.90;45.20;;;;;;1568254;74;769;-67
2021/06/04 09:23:22;;;;;;;;;;;23.90;45.50;;;;;;1562986;75;791;-67
2021/06/04 09:25:24;;;;;;;;;;;23.90;45.40;;;;;;1551347;75;1335;-70
2021/06/04 09:27:28;;;;;;;;;;;23.90;45.20;;;;;;1542000;75;783;-68
2021/06/04 09:29:30;;;;;;;;;;;23.90;45.20;;;;;;1567888;74;1177;-68
2021/06/04 09:31:36;;;;;;;;;;;23.90;45.30;;;;;;1545130;74;763;-68
2021/06/04 09:33:42;;;;;;;;;;;23.90;45.10;;;;;;1561437;74;1909;-67
2021/06/04 09:36:01;;;;;;;;;;;23.90;45.30;;;;;;1560405;74;1792;-68
2021/06/04 09:38:10;;;;;;;;;;;23.90;45.20;;;;;;1572740;75;637;-69
2021/06/04 09:40:16;;;;;;;;;;;23.90;45.10;;;;;;1570236;75;1109;-67
2021/06/04 09:42:26;;;;;;;;;;;23.90;45.10;;;;;;1546170;75;1775;-68
2021/06/04 09:44:28;;;;;;;;;;;23.90;45.20;;;;;;1544352;74;693;-67
2021/06/04 09:46:31;;;;;;;;;;;23.90;45.30;;;;;;1557321;74;747;-68
2021/06/04 09:48:44;;;;;;;;;;;23.90;45.30;;;;;;1561468;74;771;-67
2021/06/04 09:50:46;;;;;;;;;;;23.90;45.30;;;;;;1526234;76;1082;-70
2021/06/04 09:52:50;;;;;;;;;;;23.90;45.50;;;;;;1562498;75;749;-68
2021/06/04 09:55:03;;;;;;;;;;;23.90;45.30;;;;;;1560849;74;1941;-68
2021/06/04 09:57:15;;;;;;;;;;;23.90;45.50;;;;;;1542027;75;1397;-68
2021/06/04 09:59:18;;;;;;;;;;;23.90;45.50;;;;;;1565473;75;1198;-68
2021/06/04 10:01:24;;;;;;;;;;;23.90;45.60;;;;;;1562222;75;1907;-69
2021/06/04 10:03:28;;;;;;;;;;;23.90;45.70;;;;;;1563350;75;763;-68
2021/06/04 10:05:30;;;;;;;;;;;23.90;45.70;;;;;;1571476;74;830;-67
2021/06/04 10:07:32;;;;;;;;;;;23.90;45.70;;;;;;1556586;74;777;-68
2021/06/04 10:09:35;;;;;;;;;;;23.90;45.80;;;;;;1563151;75;1155;-68
2021/06/04 10:11:41;;;;;;;;;;;23.90;45.70;;;;;;1550714;75;774;-70
2021/06/04 10:13:45;;;;;;;;;;;24.00;45.60;;;;;;1567260;74;943;-70
2021/06/04 10:15:48;;;;;;;;;;;24.00;45.60;;;;;;1564875;75;1944;-68
2021/06/04 10:18:01;;;;;;;;;;;24.00;45.70;;;;;;1565404;75;813;-68
2021/06/04 10:20:02;;;;;;;;;;;24.00;45.70;;;;;;1562548;74;1673;-70
2021/06/04 10:22:15;;;;;;;;;;;24.00;45.90;;;;;;1558137;75;795;-67
2021/06/04 10:24:21;;;;;;;;;;;23.90;45.60;;;;;;1555711;75;814;-68
2021/06/04 10:26:30;;;;;;;;;;;23.90;45.70;;;;;;1550586;75;951;-68
2021/06/04 10:28:40;;;;;;;;;;;23.90;45.80;;;;;;1560903;75;748;-70
2021/06/04 10:30:43;;;;;;;;;;;24.00;45.70;;;;;;1559112;75;1116;-67
2021/06/04 10:32:49;;;;;;;;;;;23.90;45.70;;;;;;1552997;75;761;-67
2021/06/04 10:34:59;;;;;;;;;;;23.90;45.80;;;;;;1558230;75;1919;-68
2021/06/04 10:37:01;;;;;;;;;;;23.90;45.90;;;;;;1537015;75;1832;-67
2021/06/04 10:39:07;;;;;;;;;;;23.90;45.80;;;;;;1571763;75;1175;-69
2021/06/04 10:41:10;;;;;;;;;;;23.90;45.70;;;;;;1563559;75;729;-69
2021/06/04 10:43:32;;;;;;;;;;;23.90;45.70;;;;;;1580482;74;744;-68
2021/06/04 10:45:35;;;;;;;;;;;24.00;45.70;;;;;;1555569;74;711;-68
2021/06/04 10:47:57;;;;;;;;;;;23.90;45.70;;;;;;1558834;74;783;-68
2021/06/04 10:50:06;;;;;;;;;;;24.00;45.70;;;;;;1568359;75;1139;-68
2021/06/04 10:52:13;;;;;;;;;;;24.00;45.70;;;;;;1551118;74;1691;-67
2021/06/04 10:54:31;;;;;;;;;;;23.90;45.70;;;;;;1568383;75;1932;-68
2021/06/04 10:56:37;;;;;;;;;;;23.90;45.70;;;;;;1560452;75;1940;-67
2021/06/04 10:58:50;;;;;;;;;;;23.90;45.70;;;;;;1573524;75;791;-67
2021/06/04 11:00:56;;;;;;;;;;;24.00;45.80;;;;;;1558821;74;1098;-69
2021/06/04 11:03:03;;;;;;;;;;;23.90;45.70;;;;;;1574712;74;1679;-67
2021/06/04 11:05:06;;;;;;;;;;;23.90;45.90;;;;;;1612118;73;758;-69
2021/06/04 11:07:13;;;;;;;;;;;23.90;46.00;;;;;;1566903;74;1151;-68
2021/06/04 11:09:16;;;;;;;;;;;23.90;46.00;;;;;;1577096;74;1191;-69
2021/06/04 11:11:23;;;;;;;;;;;24.00;46.00;;;;;;1572153;75;792;-68
2021/06/04 11:13:26;;;;;;;;;;;24.00;46.00;;;;;;1598978;73;770;-68
2021/06/04 11:15:30;;;;;;;;;;;23.90;45.80;;;;;;1597061;73;1936;-68
2021/06/04 11:17:33;;;;;;;;;;;23.90;46.00;;;;;;1601818;73;826;-68
2021/06/04 11:19:52;;;;;;;;;;;24.00;45.70;;;;;;1595632;73;1137;-69
2021/06/04 11:21:54;;;;;;;;;;;23.90;45.80;;;;;;1605418;73;759;-69
2021/06/04 11:23:58;;;;;;;;;;;24.00;45.70;;;;;;1599457;73;746;-68
2021/06/04 11:26:01;;;;;;;;;;;23.90;45.60;;;;;;1599746;73;2251;-70
2021/06/04 11:28:07;;;;;;;;;;;23.90;45.70;;;;;;1598746;73;993;-68
2021/06/04 11:30:11;;;;;;;;;;;24.00;45.70;;;;;;1598077;73;1127;-69
2021/06/04 11:32:15;;;;;;;;;;;23.90;45.50;;;;;;1598537;73;680;-68
2021/06/04 11:34:27;;;;;;;;;;;24.00;45.40;;;;;;1612015;73;1906;-68
2021/06/04 11:36:34;;;;;;;;;;;23.90;45.30;;;;;;1587244;73;754;-68
2021/06/04 11:38:33;;;;;;;;;;;24.00;45.40;;;;;;1607876;73;1701;-68
2021/06/04 11:40:43;;;;;;;;;;;23.90;45.50;;;;;;1600724;73;1127;-68
2021/06/04 11:42:49;;;;;;;;;;;23.90;45.50;;;;;;1604452;73;800;-68
2021/06/04 11:44:52;;;;;;;;;;;24.00;45.30;;;;;;1580616;73;684;-68
2021/06/04 11:47:07;;;;;;;;;;;23.90;45.20;;;;;;1591628;73;771;-68
2021/06/04 11:49:13;;;;;;;;;;;23.90;45.10;;;;;;1597231;73;1146;-70
2021/06/04 11:51:22;;;;;;;;;;;24.00;45.00;;;;;;1588315;73;971;-73
2021/06/04 11:53:26;;;;;;;;;;;24.00;45.00;;;;;;1598615;73;758;-69
2021/06/04 11:55:31;;;;;;;;;;;24.00;44.80;;;;;;1603281;73;1928;-70
2021/06/04 11:57:47;;;;;;;;;;;23.90;44.70;;;;;;1598767;73;1847;-68
2021/06/04 11:59:53;;;;;;;;;;;23.90;44.70;;;;;;1600744;73;1134;-68
2021/06/04 12:01:57;;;;;;;;;;;23.90;44.80;;;;;;1587713;74;779;-68
2021/06/04 12:04:03;;;;;;;;;;;23.90;44.80;;;;;;1584401;74;1808;-68
2021/06/04 12:06:26;;;;;;;;;;;24.00;44.70;;;;;;1591471;73;825;-68
2021/06/04 12:08:33;;;;;;;;;;;24.00;44.60;;;;;;1574045;74;861;-68
2021/06/04 12:10:49;;;;;;;;;;;23.90;44.40;;;;;;1588155;73;1219;-69
2021/06/04 12:12:51;;;;;;;;;;;23.90;44.40;;;;;;1582689;73;822;-70
2021/06/04 12:14:58;;;;;;;;;;;23.90;44.40;;;;;;1578270;74;1897;-68
2021/06/04 12:17:18;;;;;;;;;;;24.00;44.40;;;;;;1551851;76;799;-66
2021/06/04 12:19:34;;;;;;;;;;;23.80;44.20;;;;;;1564692;74;1159;-65
2021/06/04 12:21:46;;;;;;;;;;;23.90;44.20;;;;;;1573598;74;848;-72